Time;durP1;ratioP1;P1;durP2;ratioP2;P2;SDS_P1;SDS_P2;PMS_P1;PMS_P2;Temp;Humidity;BMP_temperature;BMP_pressure;BME280_temperature;BME280_humidity;BME280_pressure;Samples;Min_cycle;Max_cycle;Signal;HPM_P1;HPM_P2
2023/08/18 00:00:11;;;;;;;9.40;6.80;;;;;;;19.10;100.00;100861.18;105548;1257;73734;-65
2023/08/18 00:02:58;;;;;;;9.20;7.40;;;;;;;19.08;100.00;100871.45;105443;1257;69124;-65
2023/08/18 00:05:25;;;;;;;8.30;7.00;;;;;;;19.06;100.00;100877.92;105531;1257;69115;-65
2023/08/18 00:07:53;;;;;;;9.70;7.60;;;;;;;19.04;100.00;100890.16;105510;1254;74406;-65
2023/08/18 00:10:20;;;;;;;8.20;6.80;;;;;;;18.98;100.00;100893.05;105486;1256;83287;-65
2023/08/18 00:12:46;;;;;;;8.80;7.60;;;;;;;18.92;100.00;100895.11;105470;1257;72720;-65
2023/08/18 00:15:13;;;;;;;9.00;7.40;;;;;;;18.91;100.00;100897.52;105390;1258;69289;-65
2023/08/18 00:17:42;;;;;;;10.80;8.00;;;;;;;18.89;100.00;100899.77;105482;1254;69180;-65
2023/08/18 00:20:09;;;;;;;9.50;7.70;;;;;;;18.88;100.00;100897.72;105448;1254;73777;-65
2023/08/18 00:22:36;;;;;;;8.80;7.40;;;;;;;18.87;100.00;100896.51;105548;1256;83379;-65
2023/08/18 00:25:04;;;;;;;11.30;7.70;;;;;;;18.86;100.00;100896.56;105440;1254;71676;-64
2023/08/18 00:27:30;;;;;;;7.90;7.00;;;;;;;18.84;100.00;100898.31;105527;1257;69141;-64
2023/08/18 00:29:57;;;;;;;10.10;7.80;;;;;;;18.83;100.00;100897.16;105494;1253;69065;-64
2023/08/18 00:32:24;;;;;;;9.50;7.60;;;;;;;18.83;100.00;100903.73;105514;1257;74863;-64
2023/08/18 00:34:52;;;;;;;9.30;7.30;;;;;;;18.82;100.00;100890.80;105537;1255;82774;-64
2023/08/18 00:37:19;;;;;;;10.00;7.80;;;;;;;18.82;100.00;100880.59;105444;1258;73938;-64
2023/08/18 00:39:45;;;;;;;11.20;8.10;;;;;;;18.81;100.00;100879.02;105466;1257;69125;-64
2023/08/18 00:42:12;;;;;;;8.20;7.40;;;;;;;18.81;100.00;100872.84;105456;1257;69100;-64
2023/08/18 00:44:39;;;;;;;10.80;8.40;;;;;;;18.80;100.00;100871.84;105533;1254;74950;-64
2023/08/18 00:47:06;;;;;;;13.20;7.80;;;;;;;18.78;100.00;100862.92;105461;1257;82318;-64
2023/08/18 00:49:33;;;;;;;8.20;7.20;;;;;;;18.75;100.00;100861.16;105471;1254;72606;-64
2023/08/18 00:52:01;;;;;;;11.60;8.10;;;;;;;18.70;100.00;100859.14;105429;1257;69182;-64
2023/08/18 00:54:28;;;;;;;11.70;7.60;;;;;;;18.67;100.00;100855.26;105498;1257;69179;-64
2023/08/18 00:56:55;;;;;;;11.30;8.10;;;;;;;18.66;100.00;100848.95;105487;1254;75033;-64
2023/08/18 00:59:23;;;;;;;10.40;7.40;;;;;;;18.62;100.00;100840.34;105448;1257;83252;-64
2023/08/18 01:01:49;;;;;;;10.70;7.40;;;;;;;18.58;100.00;100835.30;105498;1257;73761;-64
2023/08/18 01:04:18;;;;;;;10.20;7.70;;;;;;;18.56;100.00;100832.83;105474;1254;69192;-64
2023/08/18 01:06:45;;;;;;;9.20;7.70;;;;;;;18.53;100.00;100832.14;105528;1258;69089;-64
2023/08/18 01:09:13;;;;;;;8.50;7.70;;;;;;;18.49;100.00;100826.50;105436;1257;73749;-64
2023/08/18 01:11:54;;;;;;;10.90;7.90;;;;;;;18.47;100.00;100826.42;105515;1252;83356;-64
2023/08/18 01:14:31;;;;;;;13.10;8.10;;;;;;;18.45;100.00;100827.30;105487;1257;73421;-64
2023/08/18 01:17:04;;;;;;;10.70;7.30;;;;;;;18.43;100.00;100826.89;105506;1257;69164;-64
2023/08/18 01:19:31;;;;;;;10.50;7.20;;;;;;;18.42;100.00;100822.57;105504;1256;69064;-64
2023/08/18 01:21:58;;;;;;;11.50;7.70;;;;;;;18.38;100.00;100821.90;105494;1254;73944;-65
2023/08/18 01:24:27;;;;;;;10.30;7.70;;;;;;;18.34;100.00;100820.05;105498;1257;83489;-64
2023/08/18 01:26:54;;;;;;;7.50;6.50;;;;;;;18.30;100.00;100816.92;105459;1258;72931;-64
2023/08/18 01:29:23;;;;;;;10.20;7.40;;;;;;;18.24;100.00;100815.19;105428;1254;69170;-64
2023/08/18 01:31:53;;;;;;;10.90;6.80;;;;;;;18.18;100.00;100808.64;105534;1256;69195;-64
2023/08/18 01:34:21;;;;;;;8.40;6.90;;;;;;;18.12;100.00;100807.59;105517;1257;73088;-64
2023/08/18 01:36:51;;;;;;;10.50;7.40;;;;;;;18.07;100.00;100799.95;105354;1259;83616;-64
2023/08/18 01:39:20;;;;;;;9.60;7.10;;;;;;;18.04;100.00;100801.55;105529;1258;72665;-64
2023/08/18 01:41:49;;;;;;;7.70;6.60;;;;;;;18.01;100.00;100800.14;105394;1254;69183;-64
2023/08/18 01:44:16;;;;;;;8.60;6.80;;;;;;;17.98;100.00;100800.84;105475;1256;69189;-64
2023/08/18 01:46:43;;;;;;;9.70;7.00;;;;;;;17.95;100.00;100803.33;105484;1257;73762;-64
2023/08/18 01:49:10;;;;;;;11.10;7.70;;;;;;;17.96;100.00;100811.10;105491;1257;83267;-64
2023/08/18 01:51:37;;;;;;;9.80;7.60;;;;;;;17.99;100.00;100821.86;105459;1253;72658;-64
2023/08/18 01:54:05;;;;;;;9.10;7.60;;;;;;;18.01;100.00;100821.37;105513;1252;69074;-64
2023/08/18 01:56:32;;;;;;;14.90;8.90;;;;;;;18.02;100.00;100824.48;105505;1256;69112;-64
2023/08/18 01:58:59;;;;;;;10.50;8.00;;;;;;;18.02;100.00;100823.95;105468;1257;73782;-64
2023/08/18 02:01:26;;;;;;;10.70;7.90;;;;;;;18.02;100.00;100820.74;105442;1258;82449;-64
2023/08/18 02:03:53;;;;;;;9.80;7.40;;;;;;;18.02;100.00;100821.48;105517;1254;72774;-64
2023/08/18 02:06:20;;;;;;;9.90;7.60;;;;;;;18.01;100.00;100817.83;105509;1255;69144;-63
2023/08/18 02:08:48;;;;;;;9.40;7.60;;;;;;;17.99;100.00;100825.55;105499;1256;69221;-64
2023/08/18 02:11:15;;;;;;;9.10;8.00;;;;;;;17.97;100.00;100820.89;105569;1256;75208;-64
2023/08/18 02:13:42;;;;;;;8.00;7.20;;;;;;;17.95;100.00;100818.52;105448;1256;82343;-64
2023/08/18 02:16:09;;;;;;;8.50;7.50;;;;;;;17.91;100.00;100816.73;105440;1254;73637;-63
2023/08/18 02:18:36;;;;;;;8.70;7.50;;;;;;;17.86;100.00;100811.67;105519;1257;69094;-63
2023/08/18 02:21:04;;;;;;;9.30;7.10;;;;;;;17.88;100.00;100811.58;105486;1257;69163;-63
2023/08/18 02:23:32;;;;;;;10.00;7.20;;;;;;;17.88;100.00;100803.59;105514;1254;74806;-63
2023/08/18 02:26:03;;;;;;;10.90;7.60;;;;;;;17.84;100.00;100801.38;105479;1255;83126;-63
2023/08/18 02:28:33;;;;;;;10.00;7.70;;;;;;;17.82;100.00;100799.89;105473;1254;72847;-63
2023/08/18 02:31:05;;;;;;;7.80;7.10;;;;;;;17.82;100.00;100796.20;105529;1257;69137;-63
2023/08/18 02:33:33;;;;;;;8.80;7.30;;;;;;;17.80;100.00;100795.23;105481;1257;69189;-63
2023/08/18 02:36:00;;;;;;;7.60;6.50;;;;;;;17.79;100.00;100794.94;105496;1254;73767;-63
2023/08/18 02:38:28;;;;;;;12.00;7.20;;;;;;;17.75;100.00;100793.58;105546;1256;83350;-63
2023/08/18 02:40:55;;;;;;;10.10;6.90;;;;;;;17.71;100.00;100790.48;105514;1257;73879;-63
2023/08/18 02:43:23;;;;;;;8.60;6.80;;;;;;;17.69;100.00;100791.44;105456;1256;69180;-63
2023/08/18 02:45:55;;;;;;;8.50;7.20;;;;;;;17.69;100.00;100798.16;105550;1257;69160;-63
2023/08/18 02:48:26;;;;;;;8.10;7.30;;;;;;;17.67;100.00;100806.27;105558;1254;74992;-63
2023/08/18 02:51:07;;;;;;;9.40;6.40;;;;;;;17.64;100.00;100806.77;105525;1254;82442;-63
2023/08/18 02:53:37;;;;;;;9.10;7.10;;;;;;;17.61;100.00;100807.31;105455;1254;72653;-63
2023/08/18 02:56:03;;;;;;;8.00;7.20;;;;;;;17.59;100.00;100812.02;105448;1254;69174;-63
2023/08/18 02:58:31;;;;;;;9.60;7.50;;;;;;;17.57;100.00;100810.55;105514;1254;69215;-63
2023/08/18 03:01:05;;;;;;;11.40;7.20;;;;;;;17.58;100.00;100809.27;105532;1256;73530;-63
2023/08/18 03:03:33;;;;;;;9.00;7.90;;;;;;;17.57;100.00;100808.99;105516;1256;83412;-63
2023/08/18 03:06:05;;;;;;;10.50;7.70;;;;;;;17.55;100.00;100804.14;105472;1254;73639;-63
2023/08/18 03:08:39;;;;;;;10.20;7.50;;;;;;;17.51;100.00;100806.68;105434;1257;69345;-63
2023/08/18 03:11:06;;;;;;;9.40;7.10;;;;;;;17.50;100.00;100806.72;105560;1254;69112;-63
2023/08/18 03:13:33;;;;;;;8.20;7.30;;;;;;;17.49;100.00;100803.79;105555;1253;74871;-63
2023/08/18 03:16:00;;;;;;;7.40;6.70;;;;;;;17.49;100.00;100805.23;105491;1254;83701;-63
2023/08/18 03:18:27;;;;;;;7.20;6.50;;;;;;;17.48;100.00;100804.21;105492;1254;73735;-63
2023/08/18 03:20:59;;;;;;;7.80;7.00;;;;;;;17.44;100.00;100802.48;105485;1254;69141;-63
2023/08/18 03:23:27;;;;;;;10.10;7.00;;;;;;;17.38;100.00;100805.31;105527;1256;69183;-63
2023/08/18 03:26:02;;;;;;;7.10;6.30;;;;;;;17.34;100.00;100803.23;105539;1254;74707;-63
2023/08/18 03:28:31;;;;;;;8.40;7.40;;;;;;;17.30;100.00;100802.29;105515;1256;83493;-63
2023/08/18 03:31:01;;;;;;;8.10;7.00;;;;;;;17.29;100.00;100801.29;105497;1254;72799;-63
2023/08/18 03:33:29;;;;;;;;;;;;;;;17.27;100.00;100801.40;105440;1254;69208;-63
2023/08/18 03:35:57;;;;;;;11.20;7.50;;;;;;;17.23;100.00;100800.91;105506;1253;69403;-63
2023/08/18 03:38:24;;;;;;;11.60;7.50;;;;;;;17.23;100.00;100796.84;105556;1254;74629;-63
2023/08/18 03:41:07;;;;;;;8.90;7.60;;;;;;;17.25;100.00;100793.38;105481;1256;83101;-63
2023/08/18 03:43:34;;;;;;;11.80;7.90;;;;;;;17.27;100.00;100795.38;105435;1254;73651;-63
2023/08/18 03:46:23;;;;;;;10.40;7.40;;;;;;;17.30;100.00;100803.17;105497;1253;69201;-63
2023/08/18 03:48:52;;;;;;;9.90;7.00;;;;;;;17.33;100.00;100809.17;105492;1256;69317;-63
2023/08/18 03:51:19;;;;;;;13.60;8.00;;;;;;;17.35;100.00;100809.21;105435;1258;74888;-60
2023/08/18 03:53:46;;;;;;;9.70;8.00;;;;;;;17.36;100.00;100805.77;105438;1254;83399;-62
2023/08/18 03:56:15;;;;;;;10.50;8.10;;;;;;;17.39;100.00;100807.73;105586;1256;72650;-63
2023/08/18 03:58:43;;;;;;;8.70;7.70;;;;;;;17.43;100.00;100805.39;105494;1256;69035;-62
2023/08/18 04:01:10;;;;;;;8.60;7.40;;;;;;;17.45;100.00;100801.92;105552;1256;69154;-63
2023/08/18 04:03:39;;;;;;;8.00;6.60;;;;;;;17.45;100.00;100797.85;105375;1257;74136;-63
2023/08/18 04:06:07;;;;;;;7.60;6.80;;;;;;;17.43;100.00;100803.08;105319;1257;83264;-63
2023/08/18 04:08:40;;;;;;;7.30;6.60;;;;;;;17.43;100.00;100809.09;105365;1254;73607;-63
2023/08/18 04:11:12;;;;;;;7.60;6.80;;;;;;;17.40;100.00;100802.89;105495;1253;69057;-63
2023/08/18 04:13:39;;;;;;;7.10;6.30;;;;;;;17.38;100.00;100805.83;105462;1257;69295;-63
2023/08/18 04:16:07;;;;;;;9.10;8.10;;;;;;;17.38;100.00;100801.97;105510;1254;73782;-62
2023/08/18 04:18:34;;;;;;;9.00;7.40;;;;;;;17.35;100.00;100799.88;105512;1254;83092;-62
2023/08/18 04:21:02;;;;;;;9.10;7.40;;;;;;;17.33;100.00;100797.10;105469;1254;72618;-62
2023/08/18 04:23:29;;;;;;;8.80;7.90;;;;;;;17.31;100.00;100793.21;105527;1254;69123;-62
2023/08/18 04:25:57;;;;;;;8.30;7.40;;;;;;;17.29;100.00;100790.13;105564;1256;69199;-62
2023/08/18 04:28:24;;;;;;;14.00;7.80;;;;;;;17.30;100.00;100787.45;105521;1254;74721;-63
2023/08/18 04:30:51;;;;;;;10.90;8.40;;;;;;;17.34;100.00;100784.21;105514;1254;82614;-64
2023/08/18 04:33:40;;;;;;;11.10;8.20;;;;;;;17.38;100.00;100773.33;105513;1254;72813;-67
2023/08/18 04:36:08;;;;;;;10.20;7.90;;;;;;;17.43;100.00;100777.33;105527;1253;69170;-63
2023/08/18 04:38:37;;;;;;;10.10;7.90;;;;;;;17.44;100.00;100779.36;105365;1257;69172;-65
2023/08/18 04:41:09;;;;;;;9.90;7.80;;;;;;;17.46;100.00;100779.77;105648;1256;73798;-63
2023/08/18 04:43:36;;;;;;;9.40;7.80;;;;;;;17.50;100.00;100783.06;105714;1256;83326;-63
2023/08/18 04:46:03;;;;;;;9.40;8.10;;;;;;;17.56;100.00;100781.10;105531;1257;73859;-63
2023/08/18 04:48:31;;;;;;;11.00;7.70;;;;;;;17.59;100.00;100783.08;105622;1253;69115;-60
2023/08/18 04:50:58;;;;;;;13.40;8.50;;;;;;;17.61;100.00;100786.83;105809;1253;69129;-61
2023/08/18 04:53:25;;;;;;;8.70;7.60;;;;;;;17.65;100.00;100790.27;105694;1254;74927;-61
2023/08/18 04:55:52;;;;;;;8.80;8.00;;;;;;;17.70;100.00;100790.52;105699;1256;83655;-60
2023/08/18 04:58:19;;;;;;;10.40;8.10;;;;;;;17.75;100.00;100790.21;105645;1254;73667;-61
2023/08/18 05:00:46;;;;;;;9.60;8.50;;;;;;;17.80;100.00;100796.61;105612;1254;69179;-61
2023/08/18 05:03:15;;;;;;;8.30;7.40;;;;;;;17.86;100.00;100795.41;105721;1253;69095;-62
2023/08/18 05:06:02;;;;;;;8.60;7.80;;;;;;;17.92;100.00;100795.22;105682;1254;73783;-60
2023/08/18 05:08:31;;;;;;;11.00;7.80;;;;;;;18.00;100.00;100799.88;105704;1255;83598;-60
2023/08/18 05:11:04;;;;;;;8.80;7.80;;;;;;;18.04;100.00;100805.98;105870;1253;73642;-60
2023/08/18 05:13:32;;;;;;;9.90;8.40;;;;;;;18.10;100.00;100813.45;105590;1254;69001;-60
2023/08/18 05:16:03;;;;;;;10.40;9.20;;;;;;;18.13;100.00;100812.13;105633;1254;69162;-60
2023/08/18 05:18:31;;;;;;;10.20;8.50;;;;;;;18.17;100.00;100815.98;105727;1254;74811;-59
2023/08/18 05:20:58;;;;;;;10.40;8.40;;;;;;;18.22;100.00;100814.22;105583;1257;82934;-60
2023/08/18 05:23:26;;;;;;;9.30;8.40;;;;;;;18.29;100.00;100814.88;105674;1253;72627;-60
2023/08/18 05:25:54;;;;;;;9.80;8.60;;;;;;;18.37;100.00;100813.32;105743;1256;69544;-60
2023/08/18 05:28:22;;;;;;;9.30;8.10;;;;;;;18.43;100.00;100815.89;105700;1254;69103;-59
2023/08/18 05:30:50;;;;;;;11.20;8.60;;;;;;;18.51;100.00;100818.40;105704;1256;74850;-60
2023/08/18 05:33:17;;;;;;;11.60;9.20;;;;;;;18.60;100.00;100810.96;105713;1254;83366;-60
2023/08/18 05:35:44;;;;;;;10.30;8.70;;;;;;;18.68;100.00;100809.55;105818;1254;72612;-59
2023/08/18 05:38:11;;;;;;;9.80;8.70;;;;;;;18.75;100.00;100812.31;105730;1256;69067;-60
2023/08/18 05:40:43;;;;;;;10.20;9.20;;;;;;;18.82;100.00;100814.52;105682;1253;69226;-60
2023/08/18 05:43:12;;;;;;;9.60;8.50;;;;;;;18.90;100.00;100817.02;105717;1254;74932;-58
2023/08/18 05:45:39;;;;;;;10.80;9.00;;;;;;;18.97;100.00;100821.69;105772;1254;82489;-58
2023/08/18 05:48:07;;;;;;;11.30;10.20;;;;;;;19.05;100.00;100817.48;105708;1257;73618;-60
2023/08/18 05:50:34;;;;;;;12.00;10.30;;;;;;;19.12;100.00;100818.04;105605;1254;69199;-59
2023/08/18 05:53:02;;;;;;;11.00;9.90;;;;;;;19.20;100.00;100817.73;105825;1255;69208;-60
2023/08/18 05:55:30;;;;;;;10.90;8.80;;;;;;;19.28;100.00;100822.13;105726;1256;73906;-60
2023/08/18 05:58:02;;;;;;;12.60;9.30;;;;;;;19.38;100.00;100824.81;105643;1256;83090;-60
2023/08/18 06:00:31;;;;;;;8.70;7.80;;;;;;;19.47;100.00;100825.31;105603;1254;72616;-61
2023/08/18 06:02:58;;;;;;;11.90;8.80;;;;;;;19.53;100.00;100823.28;105614;1252;69162;-61
2023/08/18 06:05:27;;;;;;;12.70;8.40;;;;;;;19.61;100.00;100823.95;105599;1256;69170;-60
2023/08/18 06:07:55;;;;;;;9.20;7.80;;;;;;;19.70;100.00;100826.93;105552;1254;75061;-61
2023/08/18 06:10:23;;;;;;;9.70;7.90;;;;;;;19.79;100.00;100831.45;105525;1256;83359;-61
2023/08/18 06:12:50;;;;;;;8.70;7.60;;;;;;;19.89;100.00;100836.60;105427;1256;72834;-63
2023/08/18 06:15:19;;;;;;;13.60;7.90;;;;;;;19.98;100.00;100836.35;105528;1253;69116;-63
2023/08/18 06:17:47;;;;;;;11.80;7.40;;;;;;;20.05;100.00;100841.70;105451;1256;69115;-63
2023/08/18 06:20:15;;;;;;;8.80;8.00;;;;;;;20.11;100.00;100844.64;105499;1254;74892;-63
2023/08/18 06:22:42;;;;;;;8.90;7.60;;;;;;;20.17;100.00;100848.36;105509;1256;83402;-63
2023/08/18 06:25:11;;;;;;;9.40;8.50;;;;;;;20.25;100.00;100850.45;105516;1253;72673;-63
2023/08/18 06:27:38;;;;;;;10.50;7.00;;;;;;;20.34;100.00;100848.35;105556;1256;69218;-63
2023/08/18 06:30:06;;;;;;;8.90;8.00;;;;;;;20.44;100.00;100850.00;105606;1254;69156;-63
2023/08/18 06:32:33;;;;;;;8.30;7.20;;;;;;;20.52;100.00;100848.93;105539;1254;74889;-63
2023/08/18 06:35:00;;;;;;;9.00;6.90;;;;;;;20.60;100.00;100853.30;105536;1254;82493;-63
2023/08/18 06:37:28;;;;;;;9.70;7.00;;;;;;;20.69;100.00;100851.42;105476;1253;72618;-63
2023/08/18 06:39:55;;;;;;;8.00;7.20;;;;;;;20.79;100.00;100853.55;105503;1254;69091;-63
2023/08/18 06:42:23;;;;;;;7.60;6.80;;;;;;;20.88;100.00;100853.92;105507;1256;69126;-63
2023/08/18 06:44:50;;;;;;;7.50;6.80;;;;;;;20.98;100.00;100855.20;105543;1254;74921;-63
2023/08/18 06:47:17;;;;;;;7.70;6.90;;;;;;;21.06;100.00;100854.72;105494;1254;82319;-63
2023/08/18 06:49:44;;;;;;;9.00;6.10;;;;;;;21.16;100.00;100851.50;105532;1253;73653;-64
2023/08/18 06:52:11;;;;;;;6.80;6.10;;;;;;;21.26;100.00;100853.30;105478;1254;69259;-64
2023/08/18 06:54:38;;;;;;;7.40;6.40;;;;;;;21.35;100.00;100853.13;105401;1258;69907;-64
2023/08/18 06:57:07;;;;;;;6.60;6.00;;;;;;;21.45;100.00;100853.30;105492;1254;73683;-64
2023/08/18 06:59:34;;;;;;;7.20;6.00;;;;;;;21.54;100.00;100854.20;105502;1254;83258;-63
2023/08/18 07:02:01;;;;;;;6.40;5.90;;;;;;;21.63;100.00;100853.20;105469;1254;71655;-64
2023/08/18 07:04:28;;;;;;;7.30;6.10;;;;;;;21.73;100.00;100851.77;105518;1254;69062;-64
2023/08/18 07:06:55;;;;;;;8.40;6.20;;;;;;;21.81;100.00;100846.09;105544;1256;69211;-64
2023/08/18 07:09:22;;;;;;;8.30;5.80;;;;;;;21.90;100.00;100847.20;105486;1256;74094;-64
2023/08/18 07:11:49;;;;;;;6.20;5.60;;;;;;;21.97;100.00;100850.54;105516;1254;82440;-64
2023/08/18 07:14:16;;;;;;;6.30;5.70;;;;;;;22.06;100.00;100848.59;105435;1256;73947;-64
2023/08/18 07:16:43;;;;;;;6.10;5.30;;;;;;;22.15;100.00;100844.52;105529;1256;69205;-64
2023/08/18 07:19:10;;;;;;;6.00;5.40;;;;;;;22.25;100.00;100840.42;105543;1254;69188;-64
2023/08/18 07:21:37;;;;;;;6.40;5.30;;;;;;;22.33;100.00;100839.94;105574;1254;73708;-63
2023/08/18 07:24:04;;;;;;;7.40;5.30;;;;;;;22.41;100.00;100838.21;105531;1254;83650;-64
2023/08/18 07:26:31;;;;;;;5.50;4.90;;;;;;;22.49;100.00;100830.63;105510;1256;71777;-64
2023/08/18 07:28:58;;;;;;;5.10;4.50;;;;;;;22.58;100.00;100829.61;105531;1253;69141;-65
2023/08/18 07:31:25;;;;;;;4.50;4.00;;;;;;;22.66;100.00;100830.14;105501;1253;69180;-65
2023/08/18 07:33:52;;;;;;;6.00;5.30;;;;;;;22.73;100.00;100829.78;105515;1254;73614;-64
2023/08/18 07:36:19;;;;;;;6.20;4.90;;;;;;;22.83;100.00;100826.17;105493;1254;81275;-64
2023/08/18 07:38:46;;;;;;;6.90;5.30;;;;;;;22.90;100.00;100822.52;105480;1254;72576;-64
2023/08/18 07:41:14;;;;;;;6.30;5.00;;;;;;;22.97;100.00;100823.60;105495;1254;70213;-64
2023/08/18 07:43:40;;;;;;;5.80;5.20;;;;;;;23.03;100.00;100821.11;105523;1256;69121;-65
2023/08/18 07:46:10;;;;;;;9.10;5.10;;;;;;;23.11;100.00;100822.23;105583;1256;72484;-64
2023/08/18 07:48:38;;;;;;;4.60;4.20;;;;;;;23.20;100.00;100821.85;105527;1256;83426;-64
2023/08/18 07:51:06;;;;;;;7.90;5.50;;;;;;;23.31;100.00;100823.03;105473;1254;72583;-64
2023/08/18 07:53:33;;;;;;;6.50;5.10;;;;;;;23.43;99.98;100827.42;105562;1253;69403;-64
2023/08/18 07:56:00;;;;;;;5.80;5.20;;;;;;;23.53;99.88;100827.25;105334;1256;218947;-64
2023/08/18 07:58:27;;;;;;;6.90;4.80;;;;;;;23.66;99.51;100830.48;105507;1254;74752;-64
2023/08/18 08:00:56;;;;;;;5.10;4.60;;;;;;;23.77;99.09;100830.42;105527;1256;83221;-64
2023/08/18 08:03:23;;;;;;;;;;;;;;;23.90;98.47;100831.95;105484;1254;73852;-64
2023/08/18 08:05:51;;;;;;;5.70;5.00;;;;;;;23.98;97.30;100835.20;105572;1253;69253;-64
2023/08/18 08:08:18;;;;;;;6.80;4.80;;;;;;;24.06;96.38;100838.61;105351;1254;69141;-65
2023/08/18 08:10:44;;;;;;;7.70;5.20;;;;;;;24.14;95.53;100845.80;105509;1254;73614;-64
2023/08/18 08:13:12;;;;;;;5.70;4.80;;;;;;;24.20;94.43;100850.58;105526;1257;83022;-64
2023/08/18 08:15:39;;;;;;;4.60;4.20;;;;;;;24.24;93.39;100856.33;105464;1257;73690;-64
2023/08/18 08:18:06;;;;;;;6.80;5.30;;;;;;;24.29;92.93;100856.96;105532;1253;69169;-64
2023/08/18 08:20:40;;;;;;;6.50;5.10;;;;;;;24.37;92.54;100861.67;105515;1253;69157;-64
2023/08/18 08:23:07;;;;;;;5.90;5.20;;;;;;;24.43;92.19;100859.48;105525;1254;75050;-64
2023/08/18 08:25:34;;;;;;;5.30;4.80;;;;;;;24.52;91.54;100861.94;105545;1257;83633;-64
2023/08/18 08:28:04;;;;;;;5.60;5.00;;;;;;;24.58;90.77;100858.20;105519;1256;71717;-64
2023/08/18 08:30:31;;;;;;;;;;;;;;;24.66;90.44;100858.93;105577;1254;69126;-64
2023/08/18 08:33:01;;;;;;;5.30;4.80;;;;;;;24.74;90.00;100856.80;105065;1262;69326;-64
2023/08/18 08:35:28;;;;;;;6.70;5.60;;;;;;;24.80;89.73;100860.17;105070;1257;75037;-64
2023/08/18 08:37:56;;;;;;;6.50;5.20;;;;;;;24.86;89.22;100859.09;105092;1262;83522;-64
2023/08/18 08:40:24;;;;;;;6.00;5.30;;;;;;;24.95;88.88;100859.21;105127;1258;73454;-64
2023/08/18 08:42:56;;;;;;;5.60;5.10;;;;;;;25.04;88.60;100857.98;105090;1257;69209;-64
2023/08/18 08:45:32;;;;;;;5.60;4.90;;;;;;;25.17;88.45;100857.55;105067;1262;69225;-64
2023/08/18 08:48:06;;;;;;;5.40;4.80;;;;;;;25.27;88.20;100854.65;105106;1257;75059;-64
2023/08/18 08:50:38;;;;;;;5.80;4.70;;;;;;;25.40;87.96;100854.36;105137;1254;83521;-64
2023/08/18 08:53:06;;;;;;;5.30;4.80;;;;;;;25.50;86.38;100853.46;105592;1254;73711;-64
2023/08/18 08:55:34;;;;;;;6.30;4.90;;;;;;;25.52;85.65;100854.02;105593;1254;69065;-65
2023/08/18 08:58:01;;;;;;;6.40;5.00;;;;;;;25.53;84.95;100852.60;105406;1254;69182;-64
2023/08/18 09:00:28;;;;;;;5.00;4.40;;;;;;;25.56;84.16;100851.44;105541;1254;74792;-64
2023/08/18 09:03:00;;;;;;;5.50;5.00;;;;;;;25.56;83.55;100845.06;105507;1253;83334;-65
2023/08/18 09:05:32;;;;;;;8.30;5.00;;;;;;;25.63;84.10;100842.76;105549;1254;72391;-64
2023/08/18 09:08:00;;;;;;;7.60;5.40;;;;;;;25.80;84.42;100840.45;105563;1256;69162;-65
2023/08/18 09:10:27;;;;;;;12.40;5.50;;;;;;;25.96;84.22;100840.05;105517;1254;69167;-65
2023/08/18 09:12:55;;;;;;;6.30;5.30;;;;;;;26.08;83.80;100840.30;105528;1254;75051;-65
2023/08/18 09:15:25;;;;;;;6.30;5.30;;;;;;;26.21;83.57;100840.50;105546;1254;84093;-65
2023/08/18 09:17:52;;;;;;;5.20;4.70;;;;;;;26.33;83.37;100835.99;105552;1252;73851;-65
2023/08/18 09:20:21;;;;;;;5.00;4.60;;;;;;;26.43;82.60;100828.54;105466;1256;69172;-65
2023/08/18 09:22:57;;;;;;;6.10;5.50;;;;;;;26.51;81.39;100829.27;105542;1256;69108;-65
2023/08/18 09:25:24;;;;;;;5.60;4.90;;;;;;;26.52;80.90;100827.39;105520;1253;74829;-65
2023/08/18 09:27:55;;;;;;;6.60;5.20;;;;;;;26.63;80.83;100827.00;105497;1256;83259;-65
2023/08/18 09:30:24;;;;;;;6.50;5.10;;;;;;;26.81;80.70;100821.48;105499;1254;73776;-65
2023/08/18 09:32:51;;;;;;;6.70;5.40;;;;;;;26.97;80.55;100814.27;105537;1253;69077;-65
2023/08/18 09:35:21;;;;;;;6.40;5.20;;;;;;;27.08;79.89;100813.16;105473;1254;69096;-65
2023/08/18 09:37:56;;;;;;;5.90;5.30;;;;;;;27.23;79.46;100812.10;105510;1256;73659;-65
2023/08/18 09:40:24;;;;;;;5.70;5.00;;;;;;;27.36;78.75;100809.13;105453;1258;83320;-65
2023/08/18 09:42:51;;;;;;;5.80;4.70;;;;;;;27.50;78.13;100808.29;105499;1254;73696;-65
2023/08/18 09:45:23;;;;;;;5.40;4.90;;;;;;;27.61;77.55;100805.00;105512;1256;69058;-65
2023/08/18 09:47:54;;;;;;;8.40;5.00;;;;;;;27.75;76.90;100798.09;105582;1254;69218;-65
2023/08/18 09:50:25;;;;;;;6.20;5.10;;;;;;;27.86;76.23;100799.98;105558;1254;74645;-65
2023/08/18 09:52:55;;;;;;;5.80;4.90;;;;;;;27.89;75.17;100801.08;105501;1257;83136;-65
2023/08/18 09:55:30;;;;;;;7.30;5.00;;;;;;;27.90;74.30;100800.38;105544;1254;73240;-64
2023/08/18 09:58:28;;;;;;;7.80;5.40;;;;;;;27.96;73.99;100794.61;105537;1254;69121;-65
2023/08/18 10:00:56;;;;;;;7.60;4.90;;;;;;;28.16;74.04;100795.49;105238;1254;69115;-64
2023/08/18 10:03:29;;;;;;;6.70;5.00;;;;;;;28.34;74.22;100791.68;105520;1254;73756;-64
2023/08/18 10:05:57;;;;;;;5.30;4.40;;;;;;;28.58;73.83;100789.66;105515;1254;83321;-64
2023/08/18 10:08:25;;;;;;;8.30;5.50;;;;;;;28.77;72.99;100784.20;105471;1254;72533;-64
2023/08/18 10:10:52;;;;;;;7.10;5.20;;;;;;;28.85;71.28;100785.13;105576;1254;69179;-64
2023/08/18 10:13:20;;;;;;;8.70;4.90;;;;;;;28.89;70.19;100789.02;105510;1257;69230;-64
2023/08/18 10:15:47;;;;;;;5.20;4.60;;;;;;;28.96;69.75;100787.67;105543;1256;74241;-62
2023/08/18 10:18:16;;;;;;;7.90;4.90;;;;;;;29.11;69.51;100790.05;105578;1256;82360;-64
2023/08/18 10:20:53;;;;;;;5.50;4.50;;;;;;;29.29;68.95;100784.17;105561;1254;74389;-63
2023/08/18 10:23:23;;;;;;;4.90;4.40;;;;;;;29.52;68.83;100782.43;105560;1256;69127;-64
2023/08/18 10:25:51;;;;;;;6.70;4.60;;;;;;;29.77;68.56;100785.99;105606;1254;69085;-63
2023/08/18 10:28:23;;;;;;;6.70;4.80;;;;;;;30.04;67.79;100787.97;105654;1254;74716;-63
2023/08/18 10:31:04;;;;;;;6.20;4.60;;;;;;;30.34;67.75;100779.86;105562;1254;83628;-63
2023/08/18 10:33:52;;;;;;;5.50;4.60;;;;;;;30.62;66.42;100777.13;105583;1254;73627;-63
2023/08/18 10:36:21;;;;;;;5.10;4.20;;;;;;;30.87;65.88;100769.25;105652;1253;69116;-64
2023/08/18 10:38:51;;;;;;;4.50;3.70;;;;;;;31.09;65.16;100773.45;105629;1256;69180;-63
2023/08/18 10:41:25;;;;;;;4.30;3.90;;;;;;;31.27;64.09;100772.20;105597;1257;73824;-63
2023/08/18 10:44:02;;;;;;;6.60;4.10;;;;;;;31.45;63.14;100771.42;105571;1254;82293;-64
2023/08/18 10:46:36;;;;;;;4.40;3.70;;;;;;;31.69;62.52;100771.25;105586;1256;72638;-65
2023/08/18 10:49:03;;;;;;;8.10;4.40;;;;;;;31.88;61.36;100773.05;105646;1256;69106;-64
2023/08/18 10:51:30;;;;;;;5.50;4.20;;;;;;;32.03;60.52;100778.19;105607;1254;69096;-64
2023/08/18 10:53:57;;;;;;;4.00;3.70;;;;;;;32.12;60.05;100778.13;105615;1254;73700;-64
2023/08/18 10:56:24;;;;;;;4.30;3.70;;;;;;;32.21;59.38;100775.71;105554;1254;83041;-63
2023/08/18 10:58:51;;;;;;;4.70;4.00;;;;;;;32.27;58.85;100772.90;105646;1256;73941;-63
2023/08/18 11:01:22;;;;;;;4.20;3.80;;;;;;;32.33;58.16;100768.98;105557;1254;69106;-63
2023/08/18 11:03:49;;;;;;;4.00;3.50;;;;;;;32.50;57.75;100768.40;105557;1256;69180;-63
2023/08/18 11:06:16;;;;;;;4.20;3.80;;;;;;;32.55;56.83;100770.67;105523;1254;74685;-63
2023/08/18 11:08:43;;;;;;;6.90;3.60;;;;;;;32.70;57.26;100768.91;105521;1255;82515;-63
2023/08/18 11:11:10;;;;;;;4.20;3.80;;;;;;;32.93;56.67;100768.47;105563;1253;72688;-63
2023/08/18 11:13:37;;;;;;;5.50;3.70;;;;;;;32.94;55.65;100763.17;105523;1253;69075;-63
2023/08/18 11:16:04;;;;;;;6.10;3.90;;;;;;;32.95;55.44;100765.98;105522;1257;69640;-63